MAS1 KATL-KCLT
Flight info
| Callsign | MAS1 |
|---|---|
| Flight time | 0h 40m |
| Altitude | 27000 |
| Route | PHIIL3 PHIIL DCT CNTLR JONZE5 |
| Aircraft | A339/H-L/S |
Departure
| Time | 2026-05-07 23:51 |
|---|---|
| Airport | Hartsfield Jackson Atlanta International Airport (KATL) |
Arrival
| Time | 2026-05-08 00:31 |
|---|---|
| Airport | Charlotte Douglas International Airport (KCLT) |
| Time | Latitude | Longitude | Altitude | Speed | Heading |
|---|---|---|---|---|---|
| 2026-05-07 23:30 | 33.63833 | -84.42503 | 1012 ft | 0 kts | 269° |
| 2026-05-07 23:40 | 33.63832 | -84.42497 | 1012 ft | 3 kts | 268° |
| 2026-05-07 23:40 | 33.63834 | -84.42472 | 1012 ft | 3 kts | 246° |
| 2026-05-07 23:41 | 33.63849 | -84.42444 | 1012 ft | 4 kts | 209° |
| 2026-05-07 23:41 | 33.63875 | -84.42432 | 1012 ft | 4 kts | 171° |
| 2026-05-07 23:41 | 33.63877 | -84.42433 | 1012 ft | 0 kts | 169° |
| 2026-05-07 23:46 | 33.63877 | -84.42432 | 1012 ft | 0 kts | 169° |
| 2026-05-07 23:46 | 33.63859 | -84.42427 | 1012 ft | 6 kts | 166° |
| 2026-05-07 23:46 | 33.63791 | -84.42419 | 1012 ft | 13 kts | 178° |
| 2026-05-07 23:47 | 33.63686 | -84.42409 | 1012 ft | 7 kts | 158° |
| 2026-05-07 23:47 | 33.63658 | -84.42338 | 1013 ft | 13 kts | 102° |
| 2026-05-07 23:47 | 33.63655 | -84.42207 | 1013 ft | 18 kts | 91° |
| 2026-05-07 23:47 | 33.63655 | -84.42039 | 1012 ft | 22 kts | 90° |
| 2026-05-07 23:48 | 33.63655 | -84.41838 | 1012 ft | 27 kts | 90° |
| 2026-05-07 23:48 | 33.63655 | -84.41594 | 1012 ft | 32 kts | 89° |
| 2026-05-07 23:48 | 33.63654 | -84.41348 | 1012 ft | 29 kts | 90° |
| 2026-05-07 23:48 | 33.63655 | -84.41120 | 1012 ft | 26 kts | 90° |
| 2026-05-07 23:49 | 33.63655 | -84.40901 | 1012 ft | 27 kts | 90° |
| 2026-05-07 23:49 | 33.63634 | -84.40764 | 1013 ft | 12 kts | 132° |
| 2026-05-07 23:49 | 33.63592 | -84.40746 | 1013 ft | 2 kts | 176° |
| 2026-05-07 23:49 | 33.63551 | -84.40744 | 1013 ft | 10 kts | 179° |
| 2026-05-07 23:50 | 33.63480 | -84.40792 | 1013 ft | 15 kts | 243° |
| 2026-05-07 23:50 | 33.63472 | -84.40890 | 1013 ft | 0 kts | 268° |
| 2026-05-07 23:50 | 33.63470 | -84.41047 | 1012 ft | 59 kts | 270° |
| 2026-05-07 23:50 | 33.63474 | -84.41896 | 1015 ft | 141 kts | 270° |
| 2026-05-07 23:51 | 33.63452 | -84.43290 | 1258 ft | 183 kts | 271° |
| 2026-05-07 23:51 | 33.63342 | -84.44891 | 1873 ft | 201 kts | 263° |
| 2026-05-07 23:51 | 33.62906 | -84.46522 | 2688 ft | 207 kts | 251° |
| 2026-05-07 23:51 | 33.62295 | -84.48079 | 3481 ft | 213 kts | 248° |
| 2026-05-07 23:52 | 33.61765 | -84.49801 | 3944 ft | 230 kts | 256° |
| 2026-05-07 23:52 | 33.61277 | -84.51745 | 4386 ft | 249 kts | 255° |
| 2026-05-07 23:52 | 33.60683 | -84.53697 | 5072 ft | 254 kts | 250° |
| 2026-05-07 23:52 | 33.59982 | -84.55614 | 6025 ft | 248 kts | 248° |
| 2026-05-07 23:53 | 33.58992 | -84.57324 | 6815 ft | 255 kts | 227° |
| 2026-05-07 23:53 | 33.57414 | -84.58387 | 7511 ft | 271 kts | 202° |
| 2026-05-07 23:53 | 33.55486 | -84.58589 | 8184 ft | 285 kts | 186° |
| 2026-05-07 23:53 | 33.53490 | -84.58537 | 8902 ft | 288 kts | 186° |
| 2026-05-07 23:54 | 33.51469 | -84.58481 | 9590 ft | 291 kts | 187° |
| 2026-05-07 23:54 | 33.49451 | -84.58359 | 10241 ft | 302 kts | 178° |
| 2026-05-07 23:54 | 33.47433 | -84.57402 | 10866 ft | 325 kts | 154° |
| 2026-05-07 23:54 | 33.45747 | -84.55489 | 11447 ft | 347 kts | 130° |
| 2026-05-07 23:55 | 33.44670 | -84.52826 | 11988 ft | 363 kts | 107° |
| 2026-05-07 23:55 | 33.44386 | -84.49773 | 12300 ft | 379 kts | 84° |
| 2026-05-07 23:55 | 33.44774 | -84.46587 | 12505 ft | 394 kts | 76° |
| 2026-05-07 23:55 | 33.45238 | -84.43274 | 12691 ft | 413 kts | 79° |
| 2026-05-07 23:56 | 33.45523 | -84.39797 | 13095 ft | 424 kts | 84° |
| 2026-05-07 23:56 | 33.45642 | -84.36236 | 13611 ft | 431 kts | 85° |
| 2026-05-07 23:56 | 33.45962 | -84.32700 | 14088 ft | 433 kts | 75° |
| 2026-05-07 23:56 | 33.46738 | -84.29220 | 14607 ft | 432 kts | 67° |
| 2026-05-07 23:57 | 33.47642 | -84.25733 | 15015 ft | 440 kts | 68° |
| 2026-05-07 23:57 | 33.48538 | -84.22210 | 15551 ft | 442 kts | 69° |
| 2026-05-07 23:57 | 33.49434 | -84.18660 | 16033 ft | 447 kts | 69° |
| 2026-05-07 23:57 | 33.50336 | -84.15079 | 16510 ft | 451 kts | 69° |
| 2026-05-07 23:58 | 33.51233 | -84.11512 | 16962 ft | 455 kts | 69° |
| 2026-05-07 23:58 | 33.52152 | -84.07859 | 17418 ft | 459 kts | 69° |
| 2026-05-07 23:58 | 33.53077 | -84.04182 | 17903 ft | 463 kts | 69° |
| 2026-05-07 23:58 | 33.54010 | -84.00467 | 18379 ft | 467 kts | 70° |
| 2026-05-07 23:59 | 33.54952 | -83.96713 | 18730 ft | 472 kts | 70° |
| 2026-05-07 23:59 | 33.55898 | -83.92929 | 19192 ft | 475 kts | 70° |
| 2026-05-07 23:59 | 33.56847 | -83.89129 | 19644 ft | 476 kts | 70° |
| 2026-05-07 23:59 | 33.57800 | -83.85311 | 20074 ft | 480 kts | 70° |
| 2026-05-08 00:00 | 33.58882 | -83.81523 | 20487 ft | 479 kts | 62° |
| 2026-05-08 00:00 | 33.60260 | -83.77934 | 20919 ft | 481 kts | 60° |
| 2026-05-08 00:00 | 33.61663 | -83.74273 | 21372 ft | 484 kts | 61° |
| 2026-05-08 00:00 | 33.62968 | -83.70533 | 21840 ft | 489 kts | 64° |
| 2026-05-08 00:01 | 33.64191 | -83.66690 | 22300 ft | 492 kts | 65° |
| 2026-05-08 00:01 | 33.65398 | -83.62828 | 22759 ft | 495 kts | 65° |
| 2026-05-08 00:01 | 33.66636 | -83.58959 | 23180 ft | 498 kts | 63° |
| 2026-05-08 00:01 | 33.68209 | -83.55317 | 23641 ft | 494 kts | 53° |
| 2026-05-08 00:02 | 33.69967 | -83.51745 | 24021 ft | 497 kts | 53° |
| 2026-05-08 00:02 | 33.71720 | -83.48161 | 24452 ft | 499 kts | 53° |
| 2026-05-08 00:02 | 33.73481 | -83.44548 | 24815 ft | 503 kts | 53° |
| 2026-05-08 00:02 | 33.75255 | -83.40900 | 25225 ft | 506 kts | 54° |
| 2026-05-08 00:03 | 33.77039 | -83.37226 | 25589 ft | 510 kts | 54° |
| 2026-05-08 00:03 | 33.78833 | -83.33520 | 25984 ft | 514 kts | 53° |
| 2026-05-08 00:03 | 33.80643 | -83.29781 | 26344 ft | 518 kts | 53° |
| 2026-05-08 00:03 | 33.82459 | -83.26027 | 26749 ft | 520 kts | 53° |
| 2026-05-08 00:04 | 33.84270 | -83.22306 | 26934 ft | 522 kts | 52° |
| 2026-05-08 00:04 | 33.86247 | -83.18585 | 26972 ft | 530 kts | 50° |
| 2026-05-08 00:04 | 33.88313 | -83.14880 | 26962 ft | 535 kts | 49° |
| 2026-05-08 00:04 | 33.90381 | -83.11169 | 26960 ft | 533 kts | 49° |
| 2026-05-08 00:05 | 33.92440 | -83.07438 | 26967 ft | 533 kts | 50° |
| 2026-05-08 00:05 | 33.94471 | -83.03723 | 26959 ft | 534 kts | 50° |
| 2026-05-08 00:05 | 33.96505 | -82.99982 | 26943 ft | 534 kts | 50° |
| 2026-05-08 00:05 | 33.98541 | -82.96224 | 26943 ft | 535 kts | 50° |
| 2026-05-08 00:06 | 34.00568 | -82.92476 | 26969 ft | 534 kts | 50° |
| 2026-05-08 00:06 | 34.02579 | -82.88757 | 26972 ft | 537 kts | 50° |
| 2026-05-08 00:06 | 34.04621 | -82.84976 | 26963 ft | 538 kts | 50° |
| 2026-05-08 00:06 | 34.06658 | -82.81198 | 26959 ft | 537 kts | 50° |
| 2026-05-08 00:07 | 34.08694 | -82.77419 | 26961 ft | 537 kts | 50° |
| 2026-05-08 00:07 | 34.10732 | -82.73634 | 26949 ft | 538 kts | 50° |
| 2026-05-08 00:07 | 34.12766 | -82.69850 | 26795 ft | 535 kts | 50° |
| 2026-05-08 00:07 | 34.14779 | -82.66097 | 26378 ft | 531 kts | 50° |
| 2026-05-08 00:08 | 34.16783 | -82.62360 | 25845 ft | 528 kts | 50° |
| 2026-05-08 00:08 | 34.18766 | -82.58658 | 25269 ft | 522 kts | 50° |
| 2026-05-08 00:08 | 34.20735 | -82.54982 | 24652 ft | 518 kts | 50° |
| 2026-05-08 00:08 | 34.22681 | -82.51342 | 24166 ft | 511 kts | 50° |
| 2026-05-08 00:09 | 34.24592 | -82.47764 | 24016 ft | 501 kts | 50° |
| 2026-05-08 00:09 | 34.26444 | -82.44284 | 23930 ft | 484 kts | 50° |
| 2026-05-08 00:09 | 34.28226 | -82.40929 | 23917 ft | 467 kts | 49° |
| 2026-05-08 00:09 | 34.29982 | -82.37635 | 23630 ft | 465 kts | 49° |
| 2026-05-08 00:10 | 34.31715 | -82.34394 | 23039 ft | 466 kts | 49° |
| 2026-05-08 00:10 | 34.33470 | -82.31103 | 22478 ft | 462 kts | 49° |
| 2026-05-08 00:10 | 34.35203 | -82.27841 | 21912 ft | 458 kts | 49° |
| 2026-05-08 00:10 | 34.36920 | -82.24604 | 21345 ft | 454 kts | 49° |
| 2026-05-08 00:11 | 34.38619 | -82.21399 | 20752 ft | 451 kts | 49° |
| 2026-05-08 00:11 | 34.40306 | -82.18210 | 20225 ft | 447 kts | 49° |
| 2026-05-08 00:11 | 34.41948 | -82.15106 | 19698 ft | 443 kts | 49° |
| 2026-05-08 00:11 | 34.43632 | -82.11920 | 19165 ft | 439 kts | 49° |
| 2026-05-08 00:12 | 34.45273 | -82.08813 | 18640 ft | 436 kts | 49° |
| 2026-05-08 00:12 | 34.46879 | -82.05771 | 18126 ft | 433 kts | 49° |
| 2026-05-08 00:12 | 34.48489 | -82.02718 | 17651 ft | 427 kts | 49° |
| 2026-05-08 00:12 | 34.50076 | -81.99706 | 17194 ft | 420 kts | 49° |
| 2026-05-08 00:13 | 34.51651 | -81.96712 | 17018 ft | 416 kts | 49° |
| 2026-05-08 00:13 | 34.53187 | -81.93802 | 16977 ft | 419 kts | 50° |
| 2026-05-08 00:13 | 34.54754 | -81.90827 | 16983 ft | 419 kts | 50° |
| 2026-05-08 00:13 | 34.56320 | -81.87849 | 16926 ft | 417 kts | 50° |
| 2026-05-08 00:14 | 34.57871 | -81.84892 | 16605 ft | 413 kts | 50° |
| 2026-05-08 00:14 | 34.59401 | -81.81971 | 16188 ft | 407 kts | 50° |
| 2026-05-08 00:14 | 34.60912 | -81.79081 | 15650 ft | 403 kts | 51° |
| 2026-05-08 00:14 | 34.62402 | -81.76232 | 15200 ft | 396 kts | 51° |
| 2026-05-08 00:15 | 34.63858 | -81.73451 | 14715 ft | 391 kts | 51° |
| 2026-05-08 00:15 | 34.65302 | -81.70690 | 14224 ft | 385 kts | 52° |
| 2026-05-08 00:15 | 34.66727 | -81.67962 | 13751 ft | 379 kts | 52° |
| 2026-05-08 00:15 | 34.68133 | -81.65270 | 13188 ft | 374 kts | 52° |
| 2026-05-08 00:16 | 34.69507 | -81.62637 | 12636 ft | 369 kts | 52° |
| 2026-05-08 00:16 | 34.70875 | -81.60017 | 12104 ft | 365 kts | 53° |
| 2026-05-08 00:16 | 34.72222 | -81.57434 | 11538 ft | 360 kts | 53° |
| 2026-05-08 00:16 | 34.73561 | -81.54866 | 10953 ft | 357 kts | 53° |
| 2026-05-08 00:17 | 34.74882 | -81.52325 | 10383 ft | 354 kts | 54° |
| 2026-05-08 00:17 | 34.76066 | -81.49748 | 10023 ft | 344 kts | 60° |
| 2026-05-08 00:17 | 34.77143 | -81.47229 | 9773 ft | 329 kts | 59° |
| 2026-05-08 00:17 | 34.78086 | -81.44762 | 9567 ft | 314 kts | 68° |
| 2026-05-08 00:18 | 34.78700 | -81.42286 | 9404 ft | 297 kts | 72° |
| 2026-05-08 00:18 | 34.79270 | -81.39942 | 9230 ft | 282 kts | 72° |
| 2026-05-08 00:18 | 34.79828 | -81.37690 | 8892 ft | 276 kts | 71° |
| 2026-05-08 00:18 | 34.80384 | -81.35472 | 8442 ft | 273 kts | 71° |
| 2026-05-08 00:19 | 34.80931 | -81.33284 | 8053 ft | 268 kts | 71° |
| 2026-05-08 00:19 | 34.81471 | -81.31126 | 7631 ft | 265 kts | 72° |
| 2026-05-08 00:19 | 34.82167 | -81.29113 | 7210 ft | 258 kts | 52° |
| 2026-05-08 00:19 | 34.83191 | -81.27318 | 7022 ft | 256 kts | 52° |
| 2026-05-08 00:20 | 34.84164 | -81.25602 | 6965 ft | 240 kts | 53° |
| 2026-05-08 00:20 | 34.85081 | -81.23991 | 6966 ft | 223 kts | 53° |
| 2026-05-08 00:20 | 34.85963 | -81.22425 | 6972 ft | 228 kts | 52° |
| 2026-05-08 00:20 | 34.86858 | -81.20834 | 6910 ft | 225 kts | 53° |
| 2026-05-08 00:21 | 34.87751 | -81.19284 | 6690 ft | 222 kts | 51° |
| 2026-05-08 00:21 | 34.88627 | -81.17733 | 6381 ft | 223 kts | 52° |
| 2026-05-08 00:21 | 34.89498 | -81.16171 | 6004 ft | 224 kts | 52° |
| 2026-05-08 00:21 | 34.90358 | -81.14621 | 5701 ft | 217 kts | 53° |
| 2026-05-08 00:22 | 34.91198 | -81.13126 | 5409 ft | 214 kts | 52° |
| 2026-05-08 00:22 | 34.92049 | -81.11628 | 5089 ft | 213 kts | 52° |
| 2026-05-08 00:22 | 34.92857 | -81.10152 | 4949 ft | 203 kts | 52° |
| 2026-05-08 00:22 | 34.93606 | -81.08722 | 4741 ft | 197 kts | 52° |
| 2026-05-08 00:23 | 34.94091 | -81.07802 | 4595 ft | 193 kts | 52° |
| 2026-05-08 00:23 | 34.94821 | -81.06422 | 4202 ft | 195 kts | 52° |
| 2026-05-08 00:23 | 34.95549 | -81.05026 | 3786 ft | 195 kts | 52° |
| 2026-05-08 00:23 | 34.96263 | -81.03659 | 3627 ft | 185 kts | 52° |
| 2026-05-08 00:24 | 34.96922 | -81.02369 | 3541 ft | 171 kts | 52° |
| 2026-05-08 00:24 | 34.97515 | -81.01180 | 3339 ft | 160 kts | 52° |
| 2026-05-08 00:24 | 34.98080 | -81.00055 | 3015 ft | 155 kts | 52° |
| 2026-05-08 00:24 | 34.98637 | -80.98945 | 2958 ft | 159 kts | 52° |
| 2026-05-08 00:25 | 34.99198 | -80.97808 | 2932 ft | 148 kts | 52° |
| 2026-05-08 00:25 | 34.99770 | -80.96829 | 2913 ft | 137 kts | 35° |
| 2026-05-08 00:25 | 35.00605 | -80.96286 | 2978 ft | 141 kts | 21° |
| 2026-05-08 00:25 | 35.01443 | -80.95761 | 2938 ft | 132 kts | 22° |
| 2026-05-08 00:26 | 35.02282 | -80.95245 | 2945 ft | 135 kts | 22° |
| 2026-05-08 00:26 | 35.03117 | -80.94754 | 2844 ft | 133 kts | 22° |
| 2026-05-08 00:26 | 35.03951 | -80.94275 | 2519 ft | 132 kts | 21° |
| 2026-05-08 00:26 | 35.04762 | -80.93815 | 2311 ft | 120 kts | 22° |
| 2026-05-08 00:27 | 35.05584 | -80.93358 | 2386 ft | 137 kts | 21° |
| 2026-05-08 00:27 | 35.06491 | -80.93034 | 2323 ft | 135 kts | 359° |
| 2026-05-08 00:27 | 35.07425 | -80.93050 | 2292 ft | 135 kts | 3° |
| 2026-05-08 00:27 | 35.08359 | -80.92968 | 2196 ft | 134 kts | 5° |
| 2026-05-08 00:28 | 35.09271 | -80.92897 | 1994 ft | 128 kts | 5° |
| 2026-05-08 00:28 | 35.10179 | -80.92854 | 1946 ft | 135 kts | 0° |
| 2026-05-08 00:28 | 35.11116 | -80.92918 | 1953 ft | 137 kts | 358° |
| 2026-05-08 00:28 | 35.12060 | -80.92887 | 1954 ft | 135 kts | 6° |
| 2026-05-08 00:29 | 35.12988 | -80.92833 | 1945 ft | 134 kts | 2° |
| 2026-05-08 00:29 | 35.13933 | -80.92876 | 1900 ft | 138 kts | 358° |
| 2026-05-08 00:29 | 35.14859 | -80.92971 | 1717 ft | 126 kts | 358° |
| 2026-05-08 00:29 | 35.15758 | -80.93037 | 1596 ft | 135 kts | 357° |
| 2026-05-08 00:30 | 35.16692 | -80.93127 | 1419 ft | 136 kts | 359° |
| 2026-05-08 00:30 | 35.17655 | -80.93219 | 1263 ft | 140 kts | 357° |
| 2026-05-08 00:30 | 35.18590 | -80.93301 | 1083 ft | 128 kts | 360° |
| 2026-05-08 00:30 | 35.19520 | -80.93361 | 849 ft | 138 kts | 358° |
| 2026-05-08 00:31 | 35.20465 | -80.93447 | 727 ft | 135 kts | 358° |
| 2026-05-08 00:31 | 35.21168 | -80.93502 | 727 ft | 58 kts | 356° |
| 2026-05-08 00:31 | 35.21374 | -80.93520 | 726 ft | 5 kts | 356° |
| 2026-05-08 00:31 | 35.21431 | -80.93529 | 730 ft | 12 kts | 347° |
| 2026-05-08 00:32 | 35.21506 | -80.93598 | 731 ft | 10 kts | 317° |
| 2026-05-08 00:32 | 35.21537 | -80.93633 | 730 ft | 0 kts | 314° |
| 2026-05-08 00:32 | 35.21567 | -80.93668 | 731 ft | 9 kts | 317° |